Résultats

La Foulée Venelloise : 5.8km. Édition 2017.

5.8 Km
18/06/2017 à 09:30:00 - Venelles (13)
172 arrivant(e)s.


 
Les autres classements de cet évènement




Place▲ Temps Dossard Nom Prenom Categ #Categ Sexe #Sexe Club Vit Moy Diplôme Partager
1 00:20:44 1012 CABADET JEREMY SEM 1 M 1 AIX ATHLE PROVENCE 16.78
2 00:21:06 1072 DERRIEN EMILE SEM 2 M 2 SCO STE MARGUERITE 16.49
3 00:21:23 1151 NAVARRO ALEXANDRE SEM 3 M 3 SCO STE MARGUERITE 16.27
4 00:21:45 1022 HERIN HUGO SEM 4 M 4 AIX ATHLE PROVENCE 16.00
5 00:21:49 1043 BARTOLO GINO SEM 5 M 5 LE LIEVRE ET LA TORTUE 15.95
6 00:22:08 1129 SUZZONI JEAN-MARC M1M 1 M 6 UNION ATHLETIQUE DE MONTEREAU 15.72
7 00:22:55 1138 VULLO MAXIME SEM 6 M 7 KM 42.195 MARSEILLE 15.19
8 00:22:58 1002 HAMHAMI BELKHACEM SEM 7 M 8 OLYMPIQUE CABRIES CALAS 15.15
9 00:23:23 1111 PERRIN JEROME SEM 8 M 9 PERRIN BROTHERS RUNNING 14.88
10 00:23:58 1203 BIUCHARD CEDRIC SEM 9 M 10 CAVAL PERTUIS 14.52
11 00:24:13 1210 MITELMAN BORIS M2M 1 M 11 OLYMPIQUE CABRIES CALAS 14.37
12 00:24:18 1137 VERDY DIMITRI M1M 2 M 12 SPEEDY CLUB DE PROVENCE 14.32
13 00:24:36 1088 GRIFFET LIONEL M1M 3 M 13 ROGNAC AC 14.15
14 00:25:00 1122 ROZE RUDY M1M 4 M 14 POLYCLINIQUE DU PARC RAMBOT 13.92
15 00:25:08 1109 PASCUAL PHILIPPE M2M 2 M 15 13.85
16 00:25:18 1112 PERRIN JULIEN SEM 10 M 16 PERRIN BROTHERS RUNNING 13.75
17 00:25:27 1113 PIERRIN CATHY SEF 1 F 1 13.67
18 00:25:44 1092 IMMORDINO JEAN M2M 3 M 17 KM 42.195 MARSEILLE 13.52
19 00:25:48 1202 CARON MARTIN SEM 11 M 18 13.49
20 00:25:50 1212 N:Anonyme 1212 P:Anonyme 1212 M1M 5 M 19 SPEEDY 13.47
21 00:25:53 1062 COMINO JONATHAN M1M 6 M 20 DURANCE TRI 13.44
22 00:25:55 1042 BARTOLO ALAIN M2M 4 M 21 LE LIEVRE ET LA TORTUE 13.43
23 00:25:57 1097 LIGER SYLVAIN M1M 7 M 22 13.41
24 00:26:01 1077 FONTEYNE FLORENT SEM 12 M 23 13.38
25 00:26:09 1001 AUZANNEAU ISABELLE SEF 2 F 2 OLYMPIQUE CABRIES CALAS 13.31
26 00:26:12 1144 GILARDEAU MICHEL M2M 5 M 24 LA FOULEE DE GREASQUE 13.28
27 00:26:59 1101 MAGOT MATHIEU SEM 13 M 25 KEEP COOL VENELLES 12.90
28 00:27:11 1147 CABARDOS GABRIEL-GILLES CAM 1 M 26 12.80
29 00:27:22 1006 RICHET VERONIQUE M1F 1 F 3 OLYMPIQUE CABRIES CALAS 12.72
30 00:27:29 1119 ROSA MARC M2M 6 M 27 TEAM 12-13 12.66
31 00:27:49 1076 FERRANDO JEAN-CLAUDE M2M 7 M 28 SPEEDY CLUB DE PROVENCE 12.51
32 00:28:14 1033 ARQUIER CAROLE M2F 1 F 4 SPEEDY CLUB DE PROVENCE 12.33
33 00:28:32 1046 BOISSONT SOPHIE M1F 2 F 5 SPEEDY CLUB DE PROVENCE 12.20
34 00:28:37 1200 LOPEZ BENOIT M1M 8 M 29 12.16
35 00:28:40 1061 COMETTO CHRISTIAN M3M 1 M 30 12.14
36 00:28:46 1070 DELL'OVA FRANCIS M2M 8 M 31 12.10
37 00:28:54 1158 BENSUSSAN PASCAL M1M 9 M 32 TRIATHL'AIX 12.04
38 00:28:59 1124 SALE JOSEPH M3M 2 M 33 NEANT 12.01
39 00:29:05 1034 AUBRY ROBIN M1M 10 M 34 11.97
40 00:29:11 1004 MIRANDA PHILIPPE M2M 9 M 35 OLYMPIQUE CABRIES CALAS 11.92
41 00:29:20 1036 BAHAT ABBES M2M 10 M 36 SPEEDY CLUB DE PROVENCE 11.86
42 00:29:31 1031 AGUSTIN JEAN-LOUIS M1M 11 M 37 SPEEDY CLUB DE PROVENCE 11.79
43 00:29:38 1044 BENSOT ALI M3M 3 M 38 A I L ROUSSET 11.74
44 00:29:42 1021 GRAS CLAUDE M1M 12 M 39 AIX ATHLE PROVENCE 11.72
45 00:29:53 1207 JOURDAN JACQUES M4M 1 M 40 FOULEES DE GREASQUE 11.65
46 00:30:11 1110 PAULAY GILBERT M4M 2 M 41 11.53
47 00:30:15 1051 BRUN OLIVIER M1M 13 M 42 SPEEDY CLUB DE PROVENCE 11.50
48 00:30:32 1218 NOUGIER CARINE M1F 3 F 6 11.40
49 00:30:39 1159 SILVENTE PASCAL M1M 14 M 43 11.35
50 00:30:50 1066 COURTES GENEVIEVE M2F 2 F 7 11.29
51 00:30:55 1094 KOPF ALAIN M2M 11 M 44 11.26
52 00:30:58 1007 SPARFEL GERARD M3M 4 M 45 OLYMPIQUE CABRIES CALAS 11.24
53 00:31:12 1121 ROUX LILIAN CAM 2 M 46 11.15
54 00:31:28 1011 BORIE LOUISE M2F 3 F 8 AIX ATHLE PROVENCE 11.06
55 00:31:45 1041 BARROUILLET STEPHANE M1M 15 M 47 10.96
56 00:31:47 1069 DELAVAUD BERNARD M2M 12 M 48 TEAM 12-13 10.95
57 00:32:13 1015 ESCALE-BENEDEYT MAGALI SEF 3 F 9 AIX ATHLE PROVENCE 10.80
58 00:32:15 1116 PRUNCK-VERVAEKE MIREILLE M3F 1 F 10 10.79
59 00:32:19 1065 COURTES ALAIN M3M 5 M 49 10.77
60 00:32:43 1018 GAUTIER GERARD M3M 6 M 50 AIX ATHLE PROVENCE 10.64
61 00:32:58 1027 ONIER FRANCOISE M1F 4 F 11 AIX ATHLE PROVENCE 10.56
62 00:33:05 1020 GAUTIER YOLANDE M3F 2 F 12 AIX ATHLE PROVENCE 10.52
63 00:33:28 1050 BRUN CELINE SEF 4 F 13 SPEEDY CLUB DE PROVENCE 10.40
64 00:33:37 1091 IBRE CHRISTIAN M2M 13 M 51 CE STMICROELECTRONICS 10.35
65 00:33:38 1204 ELDIN MICHEL M1M 16 M 52 10.35
66 00:33:46 1205 LOPES MARIA M2F 4 F 14 LIBERTY AQUA 8 FITNESS 10.31
67 00:34:18 1136 TOULY PASCAL M2M 14 M 53 MANIGUET 10.15
68 00:34:23 1134 TORNATO LAETITIA M1F 5 F 15 MOI ET MES BASKETS 10.12
69 00:34:39 1206 DROMER PAUL CAM 3 M 54 10.04
70 00:34:46 1049 BRECHEMIER LUC M2M 15 M 55 M.A IDEX LUYNES 10.01
71 00:35:20 1150 VADO STEPHANIE SEF 5 F 16 9.85
72 00:35:22 1087 GOUKASSIAN GERALDINE M1F 6 F 17 SPEEDY CLUB DE PROVENCE 9.84
73 00:35:28 1100 MACE ADELINE SEF 6 F 18 9.81
74 00:35:40 1143 MOURIESSE GUY M4M 3 M 56 9.76
75 00:35:45 1217 NOUGIER MARGAUX CAF 1 F 19 9.73
76 00:35:51 1028 PLANTAMP ALICE SEF 7 F 20 AIX ATHLE PROVENCE 9.71
77 00:35:52 1068 DEBLEVID BRICE SEM 14 M 57 SPEEDY CLUB DE PROVENCE 9.70
78 00:35:52 1132 TISSERAND SOPHIE SEF 8 F 21 9.70
79 00:36:17 1047 BOREL ALAIN M3M 7 M 58 ACEP VALREAS 9.59
80 00:36:28 1071 DE-MARC DANIELLE M4F 1 F 22 SPEEDY CLUB DE PROVENCE 9.54
81 00:36:32 1082 GIALLURACHI DANIEL M3M 8 M 59 9.53
82 00:37:04 1219 MACHEREY LUCIA SEF 9 F 23 9.39
83 00:37:04 1154 EVESQUE MICHEL M3M 9 M 60 9.39
84 00:37:12 1149 MONNIER SOPHIE SEF 10 F 24 9.35
85 00:37:35 1038 BAILLY ALEXIA JUF 1 F 25 9.26
86 00:37:46 1064 COUBARD DIDIER M1M 17 M 61 9.21
87 00:37:57 1153 DELBRAY ANAIS SEF 11 F 26 9.17
88 00:38:36 1026 MULATO BERNARD M3M 10 M 62 AIX ATHLE PROVENCE 9.02
89 00:38:40 691 MESTRE CLARA SEF 12 F 27 9.00
90 00:38:46 1139 WILLERVAL SOPHIE SEF 13 F 28 8.98
91 00:38:47 1005 MOUTON-CARTAZ ERIC M2M 16 M 63 OLYMPIQUE CABRIES CALAS 8.97
92 00:38:51 1063 CORNUEZ MARIE ESF 1 F 29 8.96
93 00:39:14 1209 BAUX MARCEL M4M 4 M 64 8.87
94 00:39:15 1013 DEWAVRIN RODY M3M 11 M 65 AIX ATHLE PROVENCE 8.87
95 00:39:23 1142 KELBERINE FRANCOIS M3M 12 M 66 8.84
96 00:39:46 1075 FAGUNDES PRESCILLIA SEF 14 F 30 8.75
97 00:39:52 1029 SELLAM ELIZABETH M2F 5 F 31 AIX ATHLE PROVENCE 8.73
98 00:40:19 1085 GONZALEZ ANDRE M3M 13 M 67 CSPCG 13 8.63
99 00:40:19 1086 GONZALEZ MICHELLE M2F 6 F 32 CSPCG 13 8.63
100 00:40:25 1078 FOUGHALI SOPHIA SEF 15 F 33 SPEEDY CLUB DE PROVENCE 8.61